Time;durP1;ratioP1;P1;durP2;ratioP2;P2;SDS_P1;SDS_P2;PMS_P1;PMS_P2;Temp;Humidity;BMP_temperature;BMP_pressure;BME280_temperature;BME280_humidity;BME280_pressure;Samples;Min_cycle;Max_cycle;Signal;HPM_P1;HPM_P2
2023/04/29 00:01:26;;;;;;;24.52;18.58;;;12.30;99.90;;;;;;5055096;28;20028;-85
2023/04/29 00:03:52;;;;;;;25.00;18.02;;;12.30;99.90;;;;;;5046875;28;20500;-87
2023/04/29 00:06:17;;;;;;;23.25;17.50;;;12.30;99.90;;;;;;5049334;28;20079;-86
2023/04/29 00:08:44;;;;;;;24.52;18.55;;;12.30;99.90;;;;;;5054859;28;20056;-87
2023/04/29 00:11:10;;;;;;;25.33;17.63;;;12.40;99.90;;;;;;5050492;28;20044;-87
2023/04/29 00:13:38;;;;;;;25.08;16.75;;;12.40;99.90;;;;;;5041932;28;20029;-86
2023/04/29 00:16:04;;;;;;;21.00;15.73;;;12.50;99.90;;;;;;5044764;28;20032;-87
2023/04/29 00:18:31;;;;;;;24.33;16.13;;;12.50;99.90;;;;;;5044303;28;20036;-86
2023/04/29 00:20:57;;;;;;;20.63;15.18;;;12.50;99.90;;;;;;5048385;28;20028;-87
2023/04/29 00:23:23;;;;;;;21.58;16.83;;;12.50;99.90;;;;;;5045658;28;20029;-87
2023/04/29 00:25:54;;;;;;;20.70;15.55;;;12.50;99.90;;;;;;5048361;28;20127;-86
2023/04/29 00:28:19;;;;;;;18.83;15.00;;;12.50;99.90;;;;;;5044069;28;20029;-89
2023/04/29 00:30:45;;;;;;;20.17;14.50;;;12.60;99.90;;;;;;5047634;28;20056;-87
2023/04/29 00:33:11;;;;;;;17.85;13.50;;;12.50;99.90;;;;;;5051299;28;20557;-90
2023/04/29 00:35:37;;;;;;;21.20;12.38;;;12.60;99.90;;;;;;5044127;28;20025;-87
2023/04/29 00:38:02;;;;;;;17.98;11.45;;;12.60;99.90;;;;;;5045108;28;20493;-90
2023/04/29 00:40:28;;;;;;;17.90;10.90;;;12.70;99.90;;;;;;5050320;28;20068;-88
2023/04/29 00:42:54;;;;;;;14.82;10.55;;;12.70;99.90;;;;;;5049992;28;20017;-92
2023/04/29 00:45:19;;;;;;;11.45;9.20;;;12.70;99.90;;;;;;5053685;28;20118;-89
2023/04/29 00:47:45;;;;;;;15.93;9.07;;;12.70;99.90;;;;;;5052444;28;20025;-86
2023/04/29 00:50:14;;;;;;;11.63;9.00;;;12.80;99.90;;;;;;5054374;28;20034;-87
2023/04/29 00:52:42;;;;;;;12.60;9.23;;;12.80;99.90;;;;;;5048378;28;20070;-87
2023/04/29 00:55:07;;;;;;;13.25;9.52;;;12.80;99.90;;;;;;5050168;28;20112;-85
2023/04/29 00:57:33;;;;;;;10.95;7.93;;;12.80;99.90;;;;;;5046326;28;20116;-88
2023/04/29 00:59:59;;;;;;;13.05;9.30;;;12.80;99.90;;;;;;5053035;28;20025;-88
2023/04/29 01:02:25;;;;;;;11.23;9.20;;;12.90;99.90;;;;;;5047670;28;20036;-89
2023/04/29 01:04:51;;;;;;;13.07;10.13;;;12.90;99.90;;;;;;5044134;28;20037;-86
2023/04/29 01:07:48;;;;;;;10.90;8.75;;;12.80;99.90;;;;;;5048938;28;20025;-92
2023/04/29 01:10:33;;;;;;;10.50;8.18;;;12.80;99.90;;;;;;5053488;28;20039;-88
2023/04/29 01:13:21;;;;;;;10.77;8.57;;;12.80;99.90;;;;;;5047342;28;20043;-86
2023/04/29 01:16:10;;;;;;;11.15;8.18;;;12.80;99.90;;;;;;5051196;28;20017;-85
2023/04/29 01:18:45;;;;;;;12.52;7.55;;;12.80;99.90;;;;;;5041906;28;20035;-86
2023/04/29 01:21:10;;;;;;;8.68;7.47;;;12.80;99.90;;;;;;5046141;28;20078;-86
2023/04/29 01:23:36;;;;;;;11.57;6.65;;;12.70;99.90;;;;;;5046288;28;20061;-88
2023/04/29 01:26:02;;;;;;;9.85;7.55;;;12.70;99.90;;;;;;5060480;28;20033;-89
2023/04/29 01:28:53;;;;;;;10.15;7.00;;;12.70;99.90;;;;;;5049519;28;20016;-90
2023/04/29 01:31:30;;;;;;;7.85;6.28;;;12.80;99.90;;;;;;5050446;28;20039;-87
2023/04/29 01:34:07;;;;;;;8.10;6.47;;;12.80;99.90;;;;;;5047241;28;20025;-88
2023/04/29 01:36:36;;;;;;;6.68;5.75;;;12.80;99.90;;;;;;5047121;28;20079;-87
2023/04/29 01:39:25;;;;;;;7.30;5.50;;;12.80;99.90;;;;;;5042954;28;20033;-86
2023/04/29 01:42:18;;;;;;;6.57;5.35;;;12.80;99.90;;;;;;5048650;28;20064;-89
2023/04/29 01:44:48;;;;;;;6.68;5.22;;;12.70;99.90;;;;;;5034169;28;20048;-88
2023/04/29 01:47:14;;;;;;;6.65;4.97;;;12.70;99.90;;;;;;5052952;28;20031;-91
2023/04/29 01:49:39;;;;;;;5.20;4.47;;;12.70;99.90;;;;;;5052308;28;20100;-87
2023/04/29 01:52:06;;;;;;;7.05;4.80;;;12.70;99.90;;;;;;5046601;28;20409;-88
2023/04/29 01:54:35;;;;;;;8.57;4.95;;;12.60;99.90;;;;;;5040247;28;20021;-86
2023/04/29 01:57:01;;;;;;;6.45;5.25;;;12.60;99.90;;;;;;5049428;28;20638;-86
2023/04/29 01:59:27;;;;;;;7.32;5.20;;;12.60;99.90;;;;;;5054046;28;20052;-88
2023/04/29 02:01:52;;;;;;;6.47;4.90;;;12.60;99.90;;;;;;5048462;28;20067;-87
2023/04/29 02:04:18;;;;;;;4.78;4.07;;;12.50;99.90;;;;;;5051579;28;20147;-86
2023/04/29 02:06:43;;;;;;;4.93;4.13;;;12.40;99.90;;;;;;5042841;28;20040;-86
2023/04/29 02:09:09;;;;;;;5.22;3.83;;;12.40;99.90;;;;;;5041015;28;20033;-86
2023/04/29 02:11:35;;;;;;;5.78;3.80;;;12.30;99.90;;;;;;5045524;28;20021;-85
2023/04/29 02:14:01;;;;;;;4.85;3.65;;;12.30;99.90;;;;;;5046706;28;20025;-86
2023/04/29 02:16:26;;;;;;;6.47;4.55;;;12.20;99.90;;;;;;5054285;28;20083;-85
2023/04/29 02:18:52;;;;;;;6.25;4.30;;;12.20;99.90;;;;;;5049021;28;20013;-85
2023/04/29 02:21:17;;;;;;;7.80;5.65;;;12.10;99.90;;;;;;5049046;28;20032;-86
2023/04/29 02:23:43;;;;;;;4.68;4.03;;;12.10;99.90;;;;;;5043527;28;20028;-87
2023/04/29 02:26:09;;;;;;;12.02;5.57;;;12.10;99.90;;;;;;5048457;28;20037;-92
2023/04/29 02:28:35;;;;;;;10.30;5.55;;;12.10;99.90;;;;;;5046215;28;20067;-86
2023/04/29 02:31:01;;;;;;;8.40;5.65;;;12.20;99.90;;;;;;5059214;28;20032;-88
2023/04/29 02:33:26;;;;;;;6.18;4.68;;;12.30;99.90;;;;;;5050082;28;20047;-87
2023/04/29 02:35:52;;;;;;;5.45;4.80;;;12.30;99.90;;;;;;5056094;28;20477;-91
2023/04/29 02:38:18;;;;;;;8.65;4.03;;;12.40;99.90;;;;;;5046724;28;20434;-87
2023/04/29 02:40:44;;;;;;;4.80;3.78;;;12.40;99.90;;;;;;5054243;28;20035;-87
2023/04/29 02:43:10;;;;;;;4.88;3.53;;;12.40;99.90;;;;;;5058269;28;20032;-86
2023/04/29 02:45:37;;;;;;;6.38;4.00;;;12.50;99.90;;;;;;5055676;28;20119;-86
2023/04/29 02:48:03;;;;;;;6.05;3.28;;;12.50;99.90;;;;;;5049030;28;20025;-89
2023/04/29 02:50:29;;;;;;;5.47;3.65;;;12.50;99.90;;;;;;5047834;28;20033;-88
2023/04/29 02:52:55;;;;;;;4.35;3.90;;;12.60;99.90;;;;;;5049758;28;20071;-87
2023/04/29 02:55:21;;;;;;;7.40;3.40;;;12.50;99.90;;;;;;5048889;28;20032;-87
2023/04/29 02:57:49;;;;;;;4.35;3.95;;;12.50;99.90;;;;;;5047728;28;20768;-89
2023/04/29 03:00:15;;;;;;;6.00;3.95;;;12.50;99.90;;;;;;5053096;28;20025;-88
2023/04/29 03:02:41;;;;;;;4.80;3.75;;;12.50;99.90;;;;;;5049367;28;20432;-88
2023/04/29 03:05:06;;;;;;;4.93;4.00;;;12.50;99.90;;;;;;5058367;28;20049;-89
2023/04/29 03:07:33;;;;;;;6.20;3.88;;;12.50;99.90;;;;;;5050730;28;20480;-88
2023/04/29 03:09:58;;;;;;;5.90;3.90;;;12.50;99.90;;;;;;5053490;28;20035;-88
2023/04/29 03:12:24;;;;;;;4.28;3.30;;;12.50;99.90;;;;;;5053711;28;20107;-87
2023/04/29 03:14:50;;;;;;;6.93;3.38;;;12.50;99.90;;;;;;5049436;28;20560;-87
2023/04/29 03:17:16;;;;;;;6.05;3.60;;;12.50;99.90;;;;;;5056018;28;20028;-90
2023/04/29 03:19:42;;;;;;;4.93;3.28;;;12.50;99.90;;;;;;5052271;28;20163;-88
2023/04/29 03:22:10;;;;;;;4.63;3.40;;;12.50;99.90;;;;;;5050369;28;20024;-89
2023/04/29 03:24:36;;;;;;;4.53;3.45;;;12.40;99.90;;;;;;5050585;28;20070;-86
2023/04/29 03:27:01;;;;;;;4.13;3.30;;;12.40;99.90;;;;;;5047260;28;20098;-87
2023/04/29 03:29:27;;;;;;;7.93;3.58;;;12.40;99.90;;;;;;5043009;28;20148;-91
2023/04/29 03:31:53;;;;;;;3.63;3.30;;;12.30;99.90;;;;;;5057088;28;20267;-88
2023/04/29 03:34:19;;;;;;;4.90;2.65;;;12.30;99.90;;;;;;5047350;28;20039;-89
2023/04/29 03:36:45;;;;;;;6.72;2.53;;;12.30;99.90;;;;;;5052478;28;20136;-86
2023/04/29 03:39:13;;;;;;;2.35;2.15;;;12.20;99.90;;;;;;5054334;28;20061;-87
2023/04/29 03:41:39;;;;;;;7.22;2.95;;;12.20;99.90;;;;;;5044458;28;20028;-89
2023/04/29 03:44:05;;;;;;;6.28;5.00;;;12.10;99.90;;;;;;5050805;28;20381;-87
2023/04/29 03:46:30;;;;;;;5.30;4.78;;;12.10;99.90;;;;;;5053298;28;20051;-88
2023/04/29 03:48:56;;;;;;;6.65;5.75;;;12.10;99.90;;;;;;5052629;28;20413;-88
2023/04/29 03:51:23;;;;;;;6.80;5.38;;;12.10;99.90;;;;;;5049288;28;20132;-87
2023/04/29 03:53:51;;;;;;;6.63;4.78;;;12.00;99.90;;;;;;5043732;28;20024;-94
2023/04/29 03:56:17;;;;;;;4.50;4.05;;;12.00;99.90;;;;;;5049593;28;21704;-90
2023/04/29 03:58:42;;;;;;;4.57;3.88;;;11.90;99.90;;;;;;5045987;28;20409;-87
2023/04/29 04:01:08;;;;;;;5.93;4.38;;;11.90;99.90;;;;;;5051060;28;20051;-88
2023/04/29 04:03:34;;;;;;;6.68;5.50;;;11.80;99.90;;;;;;5045477;28;20041;-88
2023/04/29 04:06:00;;;;;;;9.85;8.00;;;11.80;99.90;;;;;;5047274;28;20033;-87
2023/04/29 04:08:25;;;;;;;16.42;11.48;;;11.90;99.90;;;;;;5046954;28;20032;-88
2023/04/29 04:10:51;;;;;;;22.83;13.52;;;11.90;99.90;;;;;;5050290;28;20462;-89
2023/04/29 04:13:17;;;;;;;17.70;13.25;;;11.90;99.90;;;;;;5047216;28;20067;-89
2023/04/29 04:15:49;;;;;;;20.33;13.02;;;11.90;99.90;;;;;;5052021;28;20677;-90
2023/04/29 04:18:15;;;;;;;20.33;14.27;;;11.80;99.90;;;;;;5044960;28;20025;-89
2023/04/29 04:20:41;;;;;;;22.50;14.57;;;11.80;99.90;;;;;;5049594;28;20515;-88
2023/04/29 04:23:06;;;;;;;27.20;17.40;;;11.80;99.90;;;;;;5050749;28;20455;-88
2023/04/29 04:25:32;;;;;;;27.25;17.48;;;11.70;99.90;;;;;;5048799;28;20245;-89
2023/04/29 04:27:58;;;;;;;33.42;18.27;;;11.80;99.90;;;;;;5045799;28;20020;-88
2023/04/29 04:30:23;;;;;;;26.13;18.00;;;11.70;99.90;;;;;;5052579;28;20033;-87
2023/04/29 04:32:49;;;;;;;27.17;17.88;;;11.70;99.90;;;;;;5051637;28;20029;-86
2023/04/29 04:35:15;;;;;;;32.20;19.15;;;11.70;99.90;;;;;;5057582;28;20495;-87
2023/04/29 04:37:40;;;;;;;26.92;17.77;;;11.70;99.90;;;;;;5050125;28;20090;-88
2023/04/29 04:40:08;;;;;;;24.95;16.75;;;11.70;99.90;;;;;;5052651;28;20082;-88
2023/04/29 04:42:33;;;;;;;31.80;18.35;;;11.70;99.90;;;;;;5042164;28;20021;-88
2023/04/29 04:45:00;;;;;;;27.20;17.38;;;11.60;99.90;;;;;;5050492;28;20048;-87
2023/04/29 04:47:26;;;;;;;23.88;14.93;;;11.60;99.90;;;;;;5050800;28;20029;-90
2023/04/29 04:49:51;;;;;;;19.63;13.55;;;11.70;99.90;;;;;;5050212;28;20036;-87
2023/04/29 04:52:20;;;;;;;23.38;15.10;;;11.60;99.90;;;;;;5052624;28;20092;-88
2023/04/29 04:54:46;;;;;;;20.13;13.98;;;11.60;99.90;;;;;;5043699;28;20025;-88
2023/04/29 04:57:12;;;;;;;19.27;13.65;;;11.60;99.90;;;;;;5045099;28;20496;-90
2023/04/29 04:59:38;;;;;;;20.58;12.88;;;11.60;99.90;;;;;;5048786;28;20044;-90
2023/04/29 05:02:03;;;;;;;17.80;11.75;;;11.60;99.90;;;;;;5051252;28;20279;-87
2023/04/29 05:04:29;;;;;;;15.50;11.55;;;11.70;99.90;;;;;;5053547;28;20452;-87
2023/04/29 05:06:54;;;;;;;18.42;11.35;;;11.70;99.90;;;;;;5048768;28;20035;-87
2023/04/29 05:09:20;;;;;;;17.15;10.75;;;11.70;99.90;;;;;;5043220;28;20025;-87
2023/04/29 05:11:45;;;;;;;16.23;10.13;;;11.70;99.90;;;;;;5045810;28;20032;-88
2023/04/29 05:14:11;;;;;;;13.98;9.07;;;11.70;99.90;;;;;;5044831;28;20029;-87
2023/04/29 05:16:37;;;;;;;12.23;7.90;;;11.70;99.90;;;;;;5045452;28;20299;-86
2023/04/29 05:19:03;;;;;;;16.25;10.63;;;11.70;99.90;;;;;;5043554;28;20025;-88
2023/04/29 05:21:28;;;;;;;17.30;10.55;;;11.70;99.90;;;;;;5047742;28;20029;-87
2023/04/29 05:23:54;;;;;;;18.73;11.27;;;11.70;99.90;;;;;;5052264;28;20574;-87
2023/04/29 05:26:20;;;;;;;14.70;9.32;;;11.70;99.90;;;;;;5047081;28;20037;-87
2023/04/29 05:28:45;;;;;;;13.27;8.80;;;11.70;99.90;;;;;;5046939;28;20036;-90
2023/04/29 05:31:11;;;;;;;13.13;8.55;;;11.70;99.90;;;;;;5046204;28;20033;-93
2023/04/29 05:33:36;;;;;;;13.68;7.38;;;11.60;99.90;;;;;;5050527;28;20111;-89
2023/04/29 05:36:03;;;;;;;12.73;8.30;;;11.60;99.90;;;;;;5050639;28;20072;-88
2023/04/29 05:38:28;;;;;;;15.02;8.57;;;11.50;99.90;;;;;;5045706;28;20478;-88
2023/04/29 05:40:55;;;;;;;15.85;10.20;;;11.50;99.90;;;;;;5045877;28;20037;-87
2023/04/29 05:43:21;;;;;;;20.60;10.75;;;11.50;99.90;;;;;;5040989;28;20124;-87
2023/04/29 05:45:47;;;;;;;17.15;11.02;;;11.30;99.90;;;;;;5043390;28;20032;-88
2023/04/29 05:48:12;;;;;;;18.10;11.35;;;11.40;99.90;;;;;;5048028;28;20063;-87
2023/04/29 05:50:41;;;;;;;16.77;10.90;;;11.30;99.90;;;;;;5044938;28;20025;-91
2023/04/29 05:53:07;;;;;;;20.05;11.20;;;11.30;99.90;;;;;;5044432;28;20378;-88
2023/04/29 05:55:33;;;;;;;18.05;12.35;;;11.20;99.90;;;;;;5049880;28;20032;-87
2023/04/29 05:57:58;;;;;;;20.15;12.27;;;11.30;99.90;;;;;;5050156;28;20377;-86
2023/04/29 06:00:24;;;;;;;20.23;12.48;;;11.30;99.90;;;;;;5047889;28;20021;-87
2023/04/29 06:02:50;;;;;;;20.70;13.50;;;11.20;99.90;;;;;;5048422;28;20066;-90
2023/04/29 06:05:15;;;;;;;24.08;14.77;;;11.20;99.90;;;;;;5058004;28;20150;-87
2023/04/29 06:07:41;;;;;;;24.67;15.77;;;11.20;99.90;;;;;;5051143;28;20025;-89
2023/04/29 06:10:07;;;;;;;26.63;17.13;;;11.20;99.90;;;;;;5040983;28;20116;-89
2023/04/29 06:12:34;;;;;;;24.10;16.00;;;11.10;99.90;;;;;;5043662;28;20091;-88
2023/04/29 06:14:59;;;;;;;27.65;18.23;;;11.20;99.90;;;;;;5049771;28;20474;-86
2023/04/29 06:17:28;;;;;;;28.08;17.88;;;11.20;99.90;;;;;;5045681;28;20025;-90
2023/04/29 06:19:54;;;;;;;35.70;24.75;;;11.20;99.90;;;;;;5047023;28;20029;-87
2023/04/29 06:22:19;;;;;;;37.13;23.48;;;11.20;99.90;;;;;;5046726;28;20074;-89
2023/04/29 06:24:46;;;;;;;42.03;28.83;;;11.10;99.90;;;;;;5049046;28;20506;-89
2023/04/29 06:27:11;;;;;;;42.67;28.35;;;11.00;99.90;;;;;;5045941;28;20066;-88
2023/04/29 06:29:37;;;;;;;41.92;28.40;;;10.90;99.90;;;;;;5048596;28;20029;-91
2023/04/29 06:32:04;;;;;;;49.83;29.90;;;10.90;99.90;;;;;;5055644;28;20040;-92
2023/04/29 06:34:29;;;;;;;47.03;30.13;;;10.80;99.90;;;;;;5050964;28;20443;-90
2023/04/29 06:36:55;;;;;;;47.03;30.55;;;10.80;99.90;;;;;;5051190;28;20043;-86
2023/04/29 06:39:21;;;;;;;48.05;31.48;;;10.70;99.90;;;;;;5052083;28;20031;-86
2023/04/29 06:41:46;;;;;;;44.30;30.30;;;10.70;99.90;;;;;;5039698;28;20025;-88
2023/04/29 06:44:12;;;;;;;50.90;29.60;;;10.70;99.90;;;;;;5040922;28;20021;-88
2023/04/29 06:46:38;;;;;;;45.10;29.02;;;10.70;99.90;;;;;;5044296;28;20033;-88
2023/04/29 06:49:05;;;;;;;46.58;29.88;;;10.70;99.90;;;;;;5056280;28;20027;-87
2023/04/29 06:51:31;;;;;;;40.15;26.90;;;10.70;99.90;;;;;;5048768;28;20045;-89
2023/04/29 06:53:56;;;;;;;43.50;29.40;;;10.70;99.90;;;;;;5052475;28;20087;-88
2023/04/29 06:56:22;;;;;;;39.15;26.55;;;10.70;99.90;;;;;;5042792;28;20039;-89
2023/04/29 06:58:48;;;;;;;43.08;30.05;;;10.70;99.90;;;;;;5048102;28;20044;-89
2023/04/29 07:01:13;;;;;;;37.08;26.67;;;10.70;99.90;;;;;;5043329;28;20060;-85
2023/04/29 07:03:39;;;;;;;38.30;26.15;;;10.80;99.90;;;;;;5054886;28;20132;-89
2023/04/29 07:06:05;;;;;;;39.95;26.25;;;10.80;99.90;;;;;;5050280;28;20033;-89
2023/04/29 07:08:31;;;;;;;34.22;25.08;;;10.80;99.90;;;;;;5045743;28;20536;-87
2023/04/29 07:10:57;;;;;;;37.92;25.08;;;10.80;99.90;;;;;;5051632;28;20021;-92
2023/04/29 07:13:24;;;;;;;34.53;24.80;;;10.80;99.90;;;;;;5047199;28;20446;-89
2023/04/29 07:15:50;;;;;;;32.17;22.63;;;10.80;99.90;;;;;;5051888;28;20056;-88
2023/04/29 07:18:15;;;;;;;36.15;24.65;;;10.90;99.90;;;;;;5044706;28;20060;-90
2023/04/29 07:20:43;;;;;;;33.67;24.45;;;10.90;99.90;;;;;;5050225;28;20035;-88
2023/04/29 07:23:09;;;;;;;34.42;24.17;;;10.90;99.90;;;;;;5043724;28;20356;-89
2023/04/29 07:25:35;;;;;;;35.63;25.13;;;10.90;99.90;;;;;;5050318;28;20051;-88
2023/04/29 07:28:00;;;;;;;37.15;26.75;;;10.90;99.90;;;;;;5049276;28;20021;-92
2023/04/29 07:30:27;;;;;;;44.58;29.77;;;10.80;99.90;;;;;;5052608;28;20021;-91
2023/04/29 07:32:53;;;;;;;39.53;29.25;;;10.80;99.90;;;;;;5049898;28;20477;-87
2023/04/29 07:35:19;;;;;;;46.70;31.50;;;10.70;99.90;;;;;;5051208;28;20029;-88
2023/04/29 07:37:45;;;;;;;50.13;34.22;;;10.70;99.90;;;;;;5052612;28;20029;-87
2023/04/29 07:40:11;;;;;;;56.13;35.92;;;10.70;99.90;;;;;;5038249;28;20025;-92
2023/04/29 07:42:36;;;;;;;60.38;39.17;;;10.70;99.90;;;;;;5037674;28;21264;-88
2023/04/29 07:45:02;;;;;;;66.93;41.33;;;10.60;99.90;;;;;;5047507;28;20110;-86
2023/04/29 07:47:28;;;;;;;69.90;42.20;;;10.60;99.90;;;;;;5046468;28;20123;-89
2023/04/29 07:49:54;;;;;;;67.22;42.13;;;10.60;99.90;;;;;;5048622;28;20362;-87
2023/04/29 07:52:19;;;;;;;71.53;45.30;;;10.50;99.90;;;;;;5051677;28;20099;-88
2023/04/29 07:54:45;;;;;;;76.57;44.53;;;10.40;99.90;;;;;;5047358;28;20466;-94
2023/04/29 07:57:10;;;;;;;75.32;45.47;;;10.40;99.90;;;;;;5046854;28;20427;-87
2023/04/29 07:59:35;;;;;;;74.95;43.83;;;10.40;99.90;;;;;;5044657;28;20033;-86
2023/04/29 08:02:01;;;;;;;77.20;45.33;;;10.40;99.90;;;;;;5049549;28;20025;-89
2023/04/29 08:04:29;;;;;;;92.68;49.33;;;10.40;99.90;;;;;;5042861;28;20456;-91
2023/04/29 08:06:55;;;;;;;91.07;47.20;;;10.40;99.90;;;;;;5045447;28;20044;-92
2023/04/29 08:09:20;;;;;;;78.60;45.42;;;10.40;99.90;;;;;;5048473;28;20048;-89
2023/04/29 08:11:46;;;;;;;91.07;48.08;;;10.30;99.90;;;;;;5051657;28;20020;-90
2023/04/29 08:14:12;;;;;;;86.65;48.47;;;10.30;99.90;;;;;;5049812;28;20033;-88
2023/04/29 08:16:37;;;;;;;95.75;51.83;;;10.30;99.90;;;;;;5046142;28;20486;-90
2023/04/29 08:19:03;;;;;;;92.32;51.15;;;10.30;99.90;;;;;;5046514;28;20025;-87
2023/04/29 08:21:30;;;;;;;99.70;52.50;;;10.20;99.90;;;;;;5043990;28;20533;-90
2023/04/29 08:23:56;;;;;;;88.80;50.25;;;10.20;99.90;;;;;;5044145;28;20075;-86
2023/04/29 08:26:22;;;;;;;109.28;56.45;;;10.20;99.90;;;;;;5040250;28;20036;-85
2023/04/29 08:28:48;;;;;;;122.03;63.47;;;10.20;99.90;;;;;;5049517;28;20021;-88
2023/04/29 08:31:18;;;;;;;124.63;64.25;;;10.20;99.90;;;;;;5050439;28;20025;-88
2023/04/29 08:33:45;;;;;;;130.13;66.85;;;10.10;99.90;;;;;;5037421;28;20082;-88
2023/04/29 08:36:10;;;;;;;134.48;68.70;;;10.00;99.90;;;;;;5053650;28;20028;-89
2023/04/29 08:38:36;;;;;;;143.65;72.35;;;9.90;99.90;;;;;;5033051;28;21225;-88
2023/04/29 08:41:02;;;;;;;144.77;71.93;;;10.00;99.90;;;;;;5037892;28;20036;-94
2023/04/29 08:43:30;;;;;;;136.80;71.25;;;9.90;99.90;;;;;;5052845;28;20050;-88
2023/04/29 08:45:58;;;;;;;119.13;64.22;;;9.80;99.90;;;;;;5041080;28;20037;-87
2023/04/29 08:48:25;;;;;;;86.03;48.45;;;9.80;99.90;;;;;;5045525;28;20028;-86
2023/04/29 08:50:51;;;;;;;72.05;41.13;;;9.80;99.90;;;;;;5034720;28;20032;-88
2023/04/29 08:53:18;;;;;;;76.97;44.00;;;9.70;99.90;;;;;;5045401;28;20033;-91
2023/04/29 08:55:45;;;;;;;60.13;36.58;;;9.70;99.90;;;;;;5042747;28;20025;-87
2023/04/29 08:58:13;;;;;;;58.30;32.83;;;9.80;99.90;;;;;;5043432;28;20060;-89
2023/04/29 09:00:41;;;;;;;43.15;28.35;;;9.80;99.90;;;;;;5044764;28;20025;-89
2023/04/29 09:03:33;;;;;;;40.10;23.17;;;9.90;99.90;;;;;;5044853;28;20044;-88
2023/04/29 09:06:02;;;;;;;31.98;20.88;;;9.90;99.90;;;;;;5040013;28;20043;-90
2023/04/29 09:08:29;;;;;;;31.08;21.23;;;9.90;99.90;;;;;;5046539;28;20114;-86
2023/04/29 09:10:56;;;;;;;35.42;21.42;;;10.00;99.90;;;;;;5048847;28;20539;-89
2023/04/29 09:13:27;;;;;;;36.17;21.85;;;10.00;99.90;;;;;;5048520;28;20463;-87
2023/04/29 09:15:53;;;;;;;35.88;21.75;;;10.00;99.90;;;;;;5045267;28;21205;-90
2023/04/29 09:18:43;;;;;;;35.00;21.88;;;10.10;99.90;;;;;;5044632;28;20028;-95
2023/04/29 09:21:12;;;;;;;35.90;19.55;;;10.00;99.90;;;;;;5043419;28;20029;-86
2023/04/29 09:23:38;;;;;;;36.85;22.05;;;10.00;99.90;;;;;;5054709;28;20394;-90
2023/04/29 09:26:03;;;;;;;30.75;20.30;;;10.00;99.90;;;;;;5049983;28;20041;-89
2023/04/29 09:28:29;;;;;;;30.92;21.10;;;10.00;99.90;;;;;;5047147;28;20029;-91
2023/04/29 09:30:54;;;;;;;33.42;20.98;;;10.00;99.90;;;;;;5060977;28;20430;-87
2023/04/29 09:33:20;;;;;;;34.42;20.45;;;10.10;99.90;;;;;;5050280;28;20066;-87
2023/04/29 09:35:47;;;;;;;36.80;21.02;;;10.10;99.90;;;;;;5060532;28;20052;-91
2023/04/29 09:38:14;;;;;;;35.28;22.55;;;10.10;99.90;;;;;;5050521;28;20067;-93
2023/04/29 09:40:43;;;;;;;37.03;23.00;;;10.00;99.90;;;;;;5048912;28;20033;-91
2023/04/29 09:43:17;;;;;;;38.85;24.10;;;10.00;99.90;;;;;;5058507;28;20056;-87
2023/04/29 09:45:47;;;;;;;38.03;24.63;;;10.00;99.90;;;;;;5047873;28;20110;-91
2023/04/29 09:48:15;;;;;;;35.65;23.67;;;10.10;99.90;;;;;;5049810;28;20087;-91
2023/04/29 09:50:43;;;;;;;36.58;24.08;;;10.10;99.90;;;;;;5054622;28;20032;-90
2023/04/29 09:53:10;;;;;;;35.22;23.70;;;10.10;99.90;;;;;;5046522;28;20041;-88
2023/04/29 09:56:06;;;;;;;38.97;25.20;;;10.10;99.90;;;;;;5058402;28;20059;-87
2023/04/29 09:58:37;;;;;;;36.63;23.67;;;10.10;99.90;;;;;;5045025;28;20068;-89
2023/04/29 10:01:04;;;;;;;37.20;22.65;;;10.10;99.90;;;;;;5061485;28;20492;-91
2023/04/29 10:03:33;;;;;;;35.58;22.00;;;10.20;99.90;;;;;;5063955;28;20094;-89
2023/04/29 10:06:01;;;;;;;29.30;19.85;;;10.20;99.90;;;;;;5056896;28;20428;-88
2023/04/29 10:08:31;;;;;;;33.10;20.75;;;10.30;99.90;;;;;;5045605;28;20116;-95
2023/04/29 10:11:02;;;;;;;31.35;21.27;;;10.30;99.90;;;;;;5048514;28;20470;-89
2023/04/29 10:13:34;;;;;;;32.42;20.08;;;10.40;99.90;;;;;;5057038;28;20036;-96
2023/04/29 10:16:08;;;;;;;29.27;19.65;;;10.50;99.90;;;;;;5049907;28;20032;-90
2023/04/29 10:18:43;;;;;;;29.00;20.05;;;10.50;99.90;;;;;;5050719;28;20048;-95
2023/04/29 10:21:10;;;;;;;27.40;18.85;;;10.70;99.90;;;;;;5064090;28;20036;-91
2023/04/29 10:23:36;;;;;;;26.63;19.88;;;10.70;99.90;;;;;;5055250;28;20500;-91
2023/04/29 10:26:05;;;;;;;26.42;18.50;;;10.70;99.90;;;;;;5061740;28;20036;-92
2023/04/29 10:28:31;;;;;;;25.70;17.33;;;10.80;99.90;;;;;;5047174;28;20040;-89
2023/04/29 10:31:03;;;;;;;22.73;16.50;;;10.80;99.90;;;;;;5052891;28;20040;-91
2023/04/29 10:33:34;;;;;;;20.20;15.70;;;10.90;99.90;;;;;;5059173;28;20382;-93
2023/04/29 10:36:00;;;;;;;25.00;15.80;;;11.00;99.90;;;;;;5047499;28;20029;-90
2023/04/29 10:38:33;;;;;;;24.27;15.88;;;11.10;99.90;;;;;;5055885;28;20029;-91
2023/04/29 10:41:07;;;;;;;21.55;16.08;;;11.10;99.90;;;;;;5052488;28;20017;-88
2023/04/29 10:43:33;;;;;;;19.50;14.77;;;11.10;99.90;;;;;;5057086;28;20064;-90
2023/04/29 10:46:34;;;;;;;21.75;14.88;;;11.10;99.90;;;;;;5054357;28;20061;-88
2023/04/29 10:49:02;;;;;;;21.88;14.57;;;11.20;99.90;;;;;;5030484;28;20025;-89
2023/04/29 10:51:44;;;;;;;25.33;13.50;;;11.20;99.90;;;;;;5050245;28;20033;-91
2023/04/29 10:54:14;;;;;;;17.05;12.85;;;11.30;99.90;;;;;;5046977;28;20110;-88
2023/04/29 10:56:56;;;;;;;21.23;13.55;;;11.40;99.90;;;;;;5053586;28;20021;-89
2023/04/29 10:59:41;;;;;;;17.05;11.48;;;11.40;99.90;;;;;;5050976;28;20033;-89
2023/04/29 11:02:09;;;;;;;17.70;11.82;;;11.50;99.90;;;;;;5037434;28;20411;-91
2023/04/29 11:05:08;;;;;;;18.88;12.43;;;11.40;99.90;;;;;;5052532;28;20078;-90
2023/04/29 11:07:34;;;;;;;22.50;14.05;;;11.30;99.90;;;;;;5051102;28;20039;-91
2023/04/29 11:10:01;;;;;;;21.90;12.82;;;11.30;99.90;;;;;;5054651;28;20028;-90
2023/04/29 11:12:27;;;;;;;19.42;14.07;;;11.30;99.90;;;;;;5059814;28;20037;-89
2023/04/29 11:15:00;;;;;;;19.13;12.82;;;11.30;99.90;;;;;;5058006;28;20076;-90
2023/04/29 11:17:35;;;;;;;19.15;13.20;;;11.30;99.90;;;;;;5044402;28;20457;-90
2023/04/29 11:20:01;;;;;;;16.77;12.63;;;11.40;99.90;;;;;;5053253;28;20557;-90
2023/04/29 11:22:30;;;;;;;18.10;13.15;;;11.40;99.90;;;;;;5050038;28;20025;-92
2023/04/29 11:25:15;;;;;;;23.58;14.60;;;11.50;99.90;;;;;;5048637;28;20043;-88
2023/04/29 11:27:41;;;;;;;15.02;12.38;;;11.50;99.90;;;;;;5045553;28;20532;-93
2023/04/29 11:30:08;;;;;;;21.60;14.50;;;11.40;99.90;;;;;;5053021;28;20029;-85
2023/04/29 11:32:39;;;;;;;24.00;14.05;;;11.40;99.90;;;;;;5050605;28;20421;-92
2023/04/29 11:35:07;;;;;;;24.88;14.30;;;11.40;99.90;;;;;;5045378;28;20056;-91
2023/04/29 11:37:34;;;;;;;32.75;14.93;;;11.40;99.90;;;;;;5041641;28;20501;-88
2023/04/29 11:40:00;;;;;;;21.83;14.45;;;11.40;99.90;;;;;;5052999;28;20107;-89
2023/04/29 11:42:26;;;;;;;22.92;14.85;;;11.50;99.90;;;;;;5050223;28;20516;-89
2023/04/29 11:44:55;;;;;;;20.15;13.45;;;11.70;99.90;;;;;;5048605;28;20124;-88
2023/04/29 11:47:26;;;;;;;19.80;13.98;;;11.70;99.90;;;;;;5042907;28;20377;-94
2023/04/29 11:49:53;;;;;;;19.33;14.32;;;11.90;99.90;;;;;;5052506;28;20032;-89
2023/04/29 11:52:19;;;;;;;18.98;12.15;;;11.90;99.90;;;;;;5062538;28;20028;-89
2023/04/29 11:54:46;;;;;;;23.70;13.85;;;12.00;99.90;;;;;;5057078;28;20504;-89
2023/04/29 11:57:12;;;;;;;17.67;12.05;;;12.00;99.90;;;;;;5041546;28;20149;-92
2023/04/29 11:59:40;;;;;;;21.35;13.30;;;12.00;99.90;;;;;;5058423;28;20028;-89
2023/04/29 12:02:11;;;;;;;22.17;13.52;;;12.00;99.90;;;;;;5049449;28;20029;-89
2023/04/29 12:04:47;;;;;;;20.17;12.15;;;12.10;99.90;;;;;;5053276;28;20485;-90
2023/04/29 12:07:16;;;;;;;20.38;12.43;;;12.10;99.90;;;;;;5059610;28;20033;-92
2023/04/29 12:09:45;;;;;;;18.67;10.77;;;12.10;99.90;;;;;;5052438;28;20379;-90
2023/04/29 12:12:12;;;;;;;18.25;11.43;;;12.10;99.90;;;;;;5055278;28;20033;-90
2023/04/29 12:14:39;;;;;;;16.58;11.05;;;12.00;99.90;;;;;;5055594;28;20025;-89
2023/04/29 12:17:05;;;;;;;17.25;11.77;;;12.00;99.90;;;;;;5061911;28;20035;-90
2023/04/29 12:19:32;;;;;;;18.50;11.15;;;11.90;99.90;;;;;;5049681;28;20041;-90
2023/04/29 12:21:58;;;;;;;17.40;10.63;;;11.90;99.90;;;;;;5052771;28;20044;-90
2023/04/29 12:24:24;;;;;;;16.45;10.60;;;11.90;99.90;;;;;;5049730;28;20025;-91
2023/04/29 12:26:50;;;;;;;15.98;11.23;;;11.90;99.90;;;;;;5041972;28;20050;-88
2023/04/29 12:29:15;;;;;;;15.63;10.35;;;11.90;99.90;;;;;;5053592;28;20075;-89
2023/04/29 12:31:42;;;;;;;25.42;12.50;;;11.90;99.90;;;;;;5050795;28;20024;-89
2023/04/29 12:34:08;;;;;;;16.95;10.60;;;11.90;99.90;;;;;;5053345;28;20122;-90
2023/04/29 12:36:33;;;;;;;21.30;11.40;;;12.00;99.90;;;;;;5057246;28;20594;-89